Time;durP1;ratioP1;P1;durP2;ratioP2;P2;SDS_P1;SDS_P2;PMS_P1;PMS_P2;Temp;Humidity;BMP_temperature;BMP_pressure;BME280_temperature;BME280_humidity;BME280_pressure;Samples;Min_cycle;Max_cycle;Signal;HPM_P1;HPM_P2
2024/04/09 00:00:49;;;;;;;31.75;6.65;;;;;;;;;;6415122;22;19998;-48
2024/04/09 00:03:17;;;;;;;41.83;7.88;;;;;;;;;;6416446;22;20145;-62
2024/04/09 00:05:54;;;;;;;34.90;6.63;;;;;;;;;;6412684;22;20047;-62
2024/04/09 00:08:21;;;;;;;21.20;5.82;;;;;;;;;;6415493;22;19995;-61
2024/04/09 00:10:49;;;;;;;23.85;5.68;;;;;;;;;;6416203;22;20094;-61
2024/04/09 00:13:25;;;;;;;37.60;6.95;;;;;;;;;;6412200;22;20078;-61
2024/04/09 00:15:52;;;;;;;27.85;6.45;;;;;;;;;;6414054;22;20564;-62
2024/04/09 00:18:27;;;;;;;23.90;5.82;;;;;;;;;;6417134;22;20292;-61
2024/04/09 00:20:54;;;;;;;;;;;;;;;;;;6414764;22;20015;-62
2024/04/09 00:23:23;;;;;;;31.05;5.75;;;;;;;;;;6414971;22;20270;-62
2024/04/09 00:25:59;;;;;;;26.38;5.50;;;;;;;;;;6416141;22;20439;-62
2024/04/09 00:28:26;;;;;;;24.80;5.18;;;;;;;;;;6415692;22;19999;-66
2024/04/09 00:30:54;;;;;;;;;;;;;;;;;;6415435;22;20216;-62
2024/04/09 00:33:28;;;;;;;36.75;5.97;;;;;;;;;;6416007;22;19994;-62
2024/04/09 00:36:01;;;;;;;30.73;6.43;;;;;;;;;;6411326;22;20018;-62
2024/04/09 00:38:46;;;;;;;32.22;5.85;;;;;;;;;;6415305;22;20012;-62
2024/04/09 00:41:14;;;;;;;25.23;5.25;;;;;;;;;;6415966;22;20382;-62
2024/04/09 00:43:49;;;;;;;35.30;5.90;;;;;;;;;;6415288;22;20006;-62
2024/04/09 00:46:18;;;;;;;28.38;5.20;;;;;;;;;;6416042;22;20307;-67
2024/04/09 00:48:45;;;;;;;20.80;5.63;;;;;;;;;;6415994;22;19995;-67
2024/04/09 00:51:27;;;;;;;40.22;5.85;;;;;;;;;;6416682;22;20077;-67
2024/04/09 00:53:54;;;;;;;29.23;5.15;;;;;;;;;;6414572;22;20408;-66
2024/04/09 00:56:28;;;;;;;32.65;5.40;;;;;;;;;;6416301;22;19998;-62
2024/04/09 00:58:55;;;;;;;33.72;5.22;;;;;;;;;;6416396;22;20129;-61
2024/04/09 01:01:26;;;;;;;39.28;6.30;;;;;;;;;;6412485;22;20011;-63
2024/04/09 01:04:01;;;;;;;31.33;5.78;;;;;;;;;;6412732;22;19999;-62
2024/04/09 01:06:28;;;;;;;38.50;5.57;;;;;;;;;;6414663;22;20042;-62
2024/04/09 01:08:56;;;;;;;;;;;;;;;;;;6413478;22;20009;-62
2024/04/09 01:11:30;;;;;;;33.13;5.38;;;;;;;;;;6414804;22;19935;-62
2024/04/09 01:13:58;;;;;;;30.92;5.38;;;;;;;;;;6415702;22;20010;-61
2024/04/09 01:16:33;;;;;;;33.60;5.57;;;;;;;;;;6414457;22;20010;-62
2024/04/09 01:19:00;;;;;;;27.88;5.68;;;;;;;;;;6414274;22;20505;-62
2024/04/09 01:21:28;;;;;;;;;;;;;;;;;;6416372;22;20011;-62
2024/04/09 01:24:02;;;;;;;27.77;4.78;;;;;;;;;;6411916;22;19935;-62
2024/04/09 01:26:29;;;;;;;;;;;;;;;;;;6416432;22;20014;-53
2024/04/09 01:29:04;;;;;;;39.90;6.03;;;;;;;;;;6415619;22;19990;-62
2024/04/09 01:31:31;;;;;;;35.15;4.70;;;;;;;;;;6413915;22;20275;-62
2024/04/09 01:33:58;;;;;;;38.70;5.05;;;;;;;;;;6414593;22;19995;-62
2024/04/09 01:36:39;;;;;;;28.65;5.68;;;;;;;;;;6413333;22;20486;-62
2024/04/09 01:39:14;;;;;;;33.53;5.20;;;;;;;;;;6414547;22;19999;-62
2024/04/09 01:41:49;;;;;;;29.10;5.13;;;;;;;;;;6414696;22;20002;-65
2024/04/09 01:44:16;;;;;;;30.83;5.90;;;;;;;;;;6416045;22;20014;-62
2024/04/09 01:46:44;;;;;;;27.38;5.55;;;;;;;;;;6412865;22;20014;-62
2024/04/09 01:49:21;;;;;;;32.72;5.00;;;;;;;;;;6413175;22;20486;-62
2024/04/09 01:51:55;;;;;;;27.77;4.85;;;;;;;;;;6414835;22;20003;-62
2024/04/09 01:54:29;;;;;;;30.35;5.35;;;;;;;;;;6415849;22;20451;-50
2024/04/09 01:56:56;;;;;;;;;;;;;;;;;;6415885;22;20015;-50
2024/04/09 01:59:23;;;;;;;27.42;4.82;;;;;;;;;;6415780;22;20236;-49
2024/04/09 02:01:58;;;;;;;21.27;4.55;;;;;;;;;;6412809;22;20486;-50
2024/04/09 02:04:27;;;;;;;31.50;5.43;;;;;;;;;;6413735;22;20403;-52
2024/04/09 02:07:02;;;;;;;26.33;4.93;;;;;;;;;;6411139;22;20018;-50
2024/04/09 02:09:29;;;;;;;29.63;5.00;;;;;;;;;;6416153;22;20006;-52
2024/04/09 02:12:04;;;;;;;31.08;5.35;;;;;;;;;;6415066;22;20311;-62
2024/04/09 02:14:31;;;;;;;;;;;;;;;;;;6415547;22;19998;-61
2024/04/09 02:16:59;;;;;;;28.88;5.53;;;;;;;;;;6413590;22;20564;-61
2024/04/09 02:19:33;;;;;;;47.67;6.68;;;;;;;;;;6414085;22;20003;-61
2024/04/09 02:22:00;;;;;;;34.63;6.10;;;;;;;;;;6411673;22;20006;-52
2024/04/09 02:24:35;;;;;;;33.40;5.20;;;;;;;;;;6416689;22;20318;-67
2024/04/09 02:27:03;;;;;;;;;;;;;;;;;;6413067;22;19994;-62
2024/04/09 02:29:31;;;;;;;25.10;5.28;;;;;;;;;;6416227;22;19930;-62
2024/04/09 02:32:05;;;;;;;31.15;5.45;;;;;;;;;;6414098;22;20082;-61
2024/04/09 02:34:35;;;;;;;35.13;5.60;;;;;;;;;;6414985;22;20011;-62
2024/04/09 02:37:06;;;;;;;30.02;5.03;;;;;;;;;;6410721;22;20010;-62
2024/04/09 02:39:41;;;;;;;25.25;5.10;;;;;;;;;;6415791;22;20518;-61
2024/04/09 02:42:13;;;;;;;29.15;5.80;;;;;;;;;;6413478;22;19999;-61
2024/04/09 02:44:47;;;;;;;33.85;5.57;;;;;;;;;;6415200;22;19995;-61
2024/04/09 02:47:15;;;;;;;29.00;6.20;;;;;;;;;;6413425;22;20453;-61
2024/04/09 02:49:43;;;;;;;31.65;5.80;;;;;;;;;;6413907;22;20382;-62
2024/04/09 02:52:24;;;;;;;33.25;6.63;;;;;;;;;;6412993;22;20438;-54
2024/04/09 02:54:51;;;;;;;27.58;6.78;;;;;;;;;;6415322;22;20505;-62
2024/04/09 02:57:26;;;;;;;34.67;7.75;;;;;;;;;;6413779;22;20077;-62
2024/04/09 02:59:53;;;;;;;53.97;8.07;;;;;;;;;;6413548;22;20323;-61
2024/04/09 03:02:21;;;;;;;;;;;;;;;;;;6414929;22;19999;-61
2024/04/09 03:04:55;;;;;;;49.45;7.88;;;;;;;;;;6414363;22;19947;-61
2024/04/09 03:07:22;;;;;;;46.10;8.63;;;;;;;;;;6415480;22;20002;-62
2024/04/09 03:09:50;;;;;;;49.42;9.00;;;;;;;;;;6414682;22;19999;-51
2024/04/09 03:12:24;;;;;;;37.40;6.80;;;;;;;;;;6412106;22;20003;-51
2024/04/09 03:14:51;;;;;;;50.58;8.90;;;;;;;;;;6415459;22;20077;-54
2024/04/09 03:17:25;;;;;;;52.50;7.65;;;;;;;;;;6418168;22;20014;-55
2024/04/09 03:19:52;;;;;;;472.98;24.15;;;;;;;;;;6415307;22;20006;-61
2024/04/09 03:22:19;;;;;;;31.33;6.40;;;;;;;;;;6415620;22;20018;-61
2024/04/09 03:24:54;;;;;;;38.13;7.40;;;;;;;;;;6416038;22;20031;-61
2024/04/09 03:27:21;;;;;;;45.25;8.07;;;;;;;;;;6415805;22;20003;-61
2024/04/09 03:29:56;;;;;;;24.70;6.05;;;;;;;;;;6415889;22;19995;-61
2024/04/09 03:32:23;;;;;;;25.33;4.80;;;;;;;;;;6417090;22;20101;-61
2024/04/09 03:34:51;;;;;;;31.98;5.35;;;;;;;;;;6416232;22;19998;-62
2024/04/09 03:37:31;;;;;;;12.48;3.47;;;;;;;;;;6412289;22;20046;-52
2024/04/09 03:39:59;;;;;;;11.43;3.65;;;;;;;;;;6417712;22;20043;-54
2024/04/09 03:42:33;;;;;;;26.33;5.15;;;;;;;;;;6416488;22;19998;-54
2024/04/09 03:45:09;;;;;;;26.90;8.10;;;;;;;;;;6416116;22;20370;-54
2024/04/09 03:47:43;;;;;;;35.65;9.13;;;;;;;;;;6417457;22;20010;-49
2024/04/09 03:50:10;;;;;;;;;;;;;;;;;;6417478;22;20069;-65
2024/04/09 03:52:54;;;;;;;17.40;4.50;;;;;;;;;;6413106;22;20689;-66
2024/04/09 03:55:21;;;;;;;185.70;10.02;;;;;;;;;;6414225;22;20366;-66
2024/04/09 03:57:56;;;;;;;94.18;6.93;;;;;;;;;;6415712;22;20006;-66
2024/04/09 04:00:23;;;;;;;53.92;7.25;;;;;;;;;;6414414;22;19995;-66
2024/04/09 04:02:50;;;;;;;37.22;6.40;;;;;;;;;;6416343;22;20021;-66
2024/04/09 04:05:25;;;;;;;35.42;8.10;;;;;;;;;;6416883;22;20010;-67
2024/04/09 04:07:52;;;;;;;;;;;;;;;;;;6416304;22;20537;-67
2024/04/09 04:10:26;;;;;;;36.92;7.45;;;;;;;;;;6415846;22;19941;-66
2024/04/09 04:12:54;;;;;;;42.17;9.55;;;;;;;;;;6415378;22;20047;-66
2024/04/09 04:15:22;;;;;;;34.83;8.27;;;;;;;;;;6415439;22;20013;-67
2024/04/09 04:17:56;;;;;;;30.80;7.50;;;;;;;;;;6413346;22;19999;-61
2024/04/09 04:20:23;;;;;;;46.28;8.23;;;;;;;;;;6412367;22;19995;-62
2024/04/09 04:22:58;;;;;;;44.40;9.07;;;;;;;;;;6413040;22;20081;-61
2024/04/09 04:25:25;;;;;;;;;;;;;;;;;;6414801;22;20062;-61
2024/04/09 04:27:52;;;;;;;33.33;7.35;;;;;;;;;;6414014;22;20317;-61
2024/04/09 04:30:29;;;;;;;33.70;7.55;;;;;;;;;;6413462;22;20002;-61
2024/04/09 04:32:57;;;;;;;46.90;9.82;;;;;;;;;;6416774;22;20094;-61
2024/04/09 04:35:31;;;;;;;44.78;8.90;;;;;;;;;;6415761;22;19998;-62
2024/04/09 04:38:05;;;;;;;;;;;;;;;;;;6411581;22;20006;-61
2024/04/09 04:40:39;;;;;;;32.88;7.50;;;;;;;;;;6410727;22;20365;-61
2024/04/09 04:43:16;;;;;;;47.30;7.95;;;;;;;;;;6411398;22;20055;-61
2024/04/09 04:45:44;;;;;;;36.92;7.85;;;;;;;;;;6411701;22;20007;-61
2024/04/09 04:48:12;;;;;;;21.13;4.88;;;;;;;;;;6411119;22;20017;-51
2024/04/09 04:50:46;;;;;;;23.55;6.28;;;;;;;;;;6411923;22;20026;-52
2024/04/09 04:53:20;;;;;;;24.52;4.75;;;;;;;;;;6412266;22;20016;-50
2024/04/09 04:55:55;;;;;;;17.25;5.47;;;;;;;;;;6415156;22;20613;-53
2024/04/09 04:58:22;;;;;;;;;;;;;;;;;;6416592;22;20003;-52
2024/04/09 05:00:49;;;;;;;27.20;5.50;;;;;;;;;;6410339;22;19923;-48
2024/04/09 05:03:24;;;;;;;14.85;4.03;;;;;;;;;;6412616;22;20003;-66
2024/04/09 05:05:52;;;;;;;5.75;3.45;;;;;;;;;;6413935;22;20069;-66
2024/04/09 05:08:26;;;;;;;10.35;3.55;;;;;;;;;;6415443;22;19998;-66
2024/04/09 05:10:53;;;;;;;7.63;3.88;;;;;;;;;;6414934;22;20391;-66
2024/04/09 05:13:21;;;;;;;12.18;3.80;;;;;;;;;;6415604;22;20443;-61
2024/04/09 05:15:55;;;;;;;13.77;4.07;;;;;;;;;;6415207;22;20002;-51
2024/04/09 05:18:22;;;;;;;;;;;;;;;;;;6416448;22;19998;-53
2024/04/09 05:20:56;;;;;;;6.45;2.55;;;;;;;;;;6415470;22;19929;-52
2024/04/09 05:23:23;;;;;;;12.88;3.38;;;;;;;;;;6415486;22;20318;-49
2024/04/09 05:25:51;;;;;;;23.67;4.38;;;;;;;;;;6414308;22;20073;-52
2024/04/09 05:28:25;;;;;;;22.52;5.13;;;;;;;;;;6415059;22;20033;-52
2024/04/09 05:30:52;;;;;;;10.45;3.70;;;;;;;;;;6414141;22;19994;-53
2024/04/09 05:33:26;;;;;;;16.15;5.47;;;;;;;;;;6415701;22;19998;-52
2024/04/09 05:35:53;;;;;;;;;;;;;;;;;;6417364;22;20002;-49
2024/04/09 05:38:33;;;;;;;20.27;4.90;;;;;;;;;;6415242;22;19922;-53
2024/04/09 05:41:04;;;;;;;30.05;5.22;;;;;;;;;;6414468;22;20009;-61
2024/04/09 05:43:39;;;;;;;14.98;4.13;;;;;;;;;;6415631;22;20014;-65
2024/04/09 05:46:06;;;;;;;15.10;4.82;;;;;;;;;;6415350;22;20137;-66
2024/04/09 05:48:33;;;;;;;26.17;5.85;;;;;;;;;;6414393;22;20099;-67
2024/04/09 05:51:13;;;;;;;26.15;7.43;;;;;;;;;;6416306;22;20042;-67
2024/04/09 05:53:46;;;;;;;23.27;6.10;;;;;;;;;;6415448;22;20076;-65
2024/04/09 05:56:20;;;;;;;25.17;6.35;;;;;;;;;;6414914;22;20010;-66
2024/04/09 05:58:47;;;;;;;12.85;4.93;;;;;;;;;;6414538;22;20392;-66
2024/04/09 06:01:15;;;;;;;;;;;;;;;;;;6416771;22;20206;-61
2024/04/09 06:03:49;;;;;;;23.35;5.85;;;;;;;;;;6414802;22;19922;-60
2024/04/09 06:06:23;;;;;;;34.85;6.72;;;;;;;;;;6414794;22;20014;-61
2024/04/09 06:08:57;;;;;;;24.88;7.18;;;;;;;;;;6414382;22;19999;-61
2024/04/09 06:11:31;;;;;;;34.10;7.03;;;;;;;;;;6414313;22;20027;-62
2024/04/09 06:14:05;;;;;;;27.08;7.35;;;;;;;;;;6415298;22;20323;-48
2024/04/09 06:16:32;;;;;;;35.50;7.82;;;;;;;;;;6414405;22;19998;-49
2024/04/09 06:18:59;;;;;;;32.03;7.10;;;;;;;;;;6415191;22;20095;-48
2024/04/09 06:21:36;;;;;;;27.65;7.55;;;;;;;;;;6414485;22;19999;-48
2024/04/09 06:24:03;;;;;;;24.92;6.97;;;;;;;;;;6415607;22;20198;-52
2024/04/09 06:26:38;;;;;;;27.05;6.40;;;;;;;;;;6414168;22;20587;-50
2024/04/09 06:29:05;;;;;;;25.23;6.72;;;;;;;;;;6415425;22;20055;-62
2024/04/09 06:31:32;;;;;;;28.42;6.82;;;;;;;;;;6415084;22;19994;-62
2024/04/09 06:34:06;;;;;;;16.67;5.47;;;;;;;;;;6415624;22;20006;-62
2024/04/09 06:36:33;;;;;;;28.05;6.32;;;;;;;;;;6411268;22;20035;-62
2024/04/09 06:39:14;;;;;;;21.45;5.15;;;;;;;;;;6417234;22;19999;-62
2024/04/09 06:41:42;;;;;;;19.35;4.55;;;;;;;;;;6415305;22;20013;-61
2024/04/09 06:44:16;;;;;;;20.88;4.93;;;;;;;;;;6417458;22;20014;-62
2024/04/09 06:46:43;;;;;;;;;;;;;;;;;;6417211;22;20533;-62
2024/04/09 06:49:10;;;;;;;17.58;3.97;;;;;;;;;;6417791;22;20006;-62
2024/04/09 06:51:45;;;;;;;21.10;3.97;;;;;;;;;;6416499;22;19998;-61
2024/04/09 06:54:25;;;;;;;19.67;4.10;;;;;;;;;;6418445;22;19998;-61
2024/04/09 06:57:00;;;;;;;22.88;4.00;;;;;;;;;;6417335;22;19998;-61
2024/04/09 06:59:27;;;;;;;;;;;;;;;;;;6417630;22;19999;-61
2024/04/09 07:01:55;;;;;;;20.70;3.83;;;;;;;;;;6416354;22;19923;-61
2024/04/09 07:04:30;;;;;;;16.77;4.00;;;;;;;;;;6416609;22;20077;-61
2024/04/09 07:07:04;;;;;;;15.13;3.67;;;;;;;;;;6415680;22;20068;-67
2024/04/09 07:09:31;;;;;;;;;;;;;;;;;;6417267;22;20549;-61
2024/04/09 07:12:05;;;;;;;14.68;4.00;;;;;;;;;;6417443;22;19971;-61
2024/04/09 07:14:32;;;;;;;;;;;;;;;;;;6418076;22;20383;-59
2024/04/09 07:16:59;;;;;;;15.88;2.75;;;;;;;;;;6415684;22;19923;-59
2024/04/09 07:19:34;;;;;;;16.48;3.22;;;;;;;;;;6418161;22;20013;-59
2024/04/09 07:22:02;;;;;;;19.85;3.65;;;;;;;;;;6415491;22;20013;-59
2024/04/09 07:24:36;;;;;;;19.23;3.70;;;;;;;;;;6417493;22;20010;-58
2024/04/09 07:27:04;;;;;;;15.50;3.53;;;;;;;;;;6416874;22;20368;-60
2024/04/09 07:29:31;;;;;;;15.20;3.63;;;;;;;;;;6416383;22;19999;-59
2024/04/09 07:32:07;;;;;;;11.93;2.97;;;;;;;;;;6416644;22;19998;-59
2024/04/09 07:34:35;;;;;;;20.15;3.60;;;;;;;;;;6417224;22;20323;-59
2024/04/09 07:37:15;;;;;;;14.63;3.47;;;;;;;;;;6414001;22;20007;-59
2024/04/09 07:39:44;;;;;;;14.68;2.83;;;;;;;;;;6416725;22;20013;-59
2024/04/09 07:42:18;;;;;;;15.38;3.70;;;;;;;;;;6417920;22;20013;-59
2024/04/09 07:44:45;;;;;;;;;;;;;;;;;;6416779;22;20430;-59
2024/04/09 07:47:13;;;;;;;16.95;3.90;;;;;;;;;;6415506;22;19923;-58
2024/04/09 07:49:47;;;;;;;12.75;2.75;;;;;;;;;;6415089;22;19999;-59
2024/04/09 07:52:17;;;;;;;13.35;3.13;;;;;;;;;;6416195;22;20323;-59
2024/04/09 07:54:58;;;;;;;13.13;3.15;;;;;;;;;;6416907;22;20085;-62
2024/04/09 07:57:26;;;;;;;8.90;2.83;;;;;;;;;;6417004;22;20010;-61
2024/04/09 08:00:01;;;;;;;13.38;3.88;;;;;;;;;;6416393;22;20003;-62
2024/04/09 08:02:28;;;;;;;;;;;;;;;;;;6416215;22;19995;-62
2024/04/09 08:04:56;;;;;;;11.57;2.90;;;;;;;;;;6415232;22;20240;-67
2024/04/09 08:07:30;;;;;;;9.90;3.03;;;;;;;;;;6414947;22;20010;-52
2024/04/09 08:09:57;;;;;;;;;;;;;;;;;;6416240;22;20010;-54
2024/04/09 08:12:31;;;;;;;14.32;3.40;;;;;;;;;;6416720;22;19923;-50
2024/04/09 08:14:58;;;;;;;12.75;2.72;;;;;;;;;;6416025;22;19999;-52
2024/04/09 08:17:26;;;;;;;13.02;2.60;;;;;;;;;;6415627;22;20006;-49
2024/04/09 08:20:00;;;;;;;10.82;2.88;;;;;;;;;;6415260;22;20002;-55
2024/04/09 08:22:28;;;;;;;8.00;2.25;;;;;;;;;;6416757;22;20338;-52
2024/04/09 08:25:02;;;;;;;9.40;2.72;;;;;;;;;;6415431;22;20421;-51
2024/04/09 08:27:33;;;;;;;9.70;2.85;;;;;;;;;;6417736;22;20001;-51
2024/04/09 08:30:00;;;;;;;9.35;2.20;;;;;;;;;;6414819;22;20003;-49
2024/04/09 08:32:34;;;;;;;9.57;2.58;;;;;;;;;;6416318;22;20005;-48
2024/04/09 08:35:01;;;;;;;;;;;;;;;;;;6417005;22;20306;-62
2024/04/09 08:37:42;;;;;;;7.70;2.20;;;;;;;;;;6412821;22;20394;-62
2024/04/09 08:40:10;;;;;;;6.70;2.05;;;;;;;;;;6415764;22;20002;-62
2024/04/09 08:42:45;;;;;;;7.55;2.35;;;;;;;;;;6415689;22;20010;-62
2024/04/09 08:45:24;;;;;;;7.82;2.15;;;;;;;;;;6417513;22;20002;-62
2024/04/09 08:47:53;;;;;;;5.25;1.77;;;;;;;;;;6415312;22;20367;-62
2024/04/09 08:50:27;;;;;;;8.75;1.85;;;;;;;;;;6414123;22;19998;-51
2024/04/09 08:52:58;;;;;;;5.75;1.67;;;;;;;;;;6413659;22;20086;-52
2024/04/09 08:55:39;;;;;;;9.90;1.75;;;;;;;;;;6416647;22;20006;-53
2024/04/09 08:58:11;;;;;;;8.43;2.33;;;;;;;;;;6415186;22;20006;-48
2024/04/09 09:00:45;;;;;;;3.72;1.35;;;;;;;;;;6416071;22;20443;-67
2024/04/09 09:03:14;;;;;;;7.50;2.10;;;;;;;;;;6415861;22;19994;-62
2024/04/09 09:06:01;;;;;;;5.78;1.80;;;;;;;;;;6414134;22;20048;-62
2024/04/09 09:08:39;;;;;;;5.88;1.75;;;;;;;;;;6414284;22;20038;-62
2024/04/09 09:11:23;;;;;;;6.65;1.98;;;;;;;;;;6415088;22;20405;-62
2024/04/09 09:13:51;;;;;;;6.40;1.88;;;;;;;;;;6415840;22;20042;-62
2024/04/09 09:16:28;;;;;;;5.93;2.03;;;;;;;;;;6415477;22;20114;-62
2024/04/09 09:19:05;;;;;;;7.00;2.05;;;;;;;;;;6414789;22;20009;-62
2024/04/09 09:21:42;;;;;;;6.88;2.00;;;;;;;;;;6414264;22;19998;-61
2024/04/09 09:24:10;;;;;;;6.82;1.90;;;;;;;;;;6413809;22;20006;-61
2024/04/09 09:26:38;;;;;;;;;;;;;;;;;;6415902;22;20218;-61
2024/04/09 09:29:14;;;;;;;5.18;1.83;;;;;;;;;;6414320;22;19990;-62
2024/04/09 09:31:41;;;;;;;5.40;1.90;;;;;;;;;;6415912;22;20003;-62
2024/04/09 09:34:11;;;;;;;4.57;1.40;;;;;;;;;;6414546;22;20018;-61
2024/04/09 09:36:52;;;;;;;5.80;1.98;;;;;;;;;;6413919;22;20003;-62
2024/04/09 09:39:35;;;;;;;9.68;1.92;;;;;;;;;;6415600;22;20008;-62
2024/04/09 09:42:04;;;;;;;5.03;1.65;;;;;;;;;;6414400;22;19994;-62
2024/04/09 09:44:39;;;;;;;3.30;1.35;;;;;;;;;;6413736;22;20002;-62
2024/04/09 09:47:07;;;;;;;7.57;1.85;;;;;;;;;;6415499;22;20010;-52
2024/04/09 09:49:36;;;;;;;4.55;1.50;;;;;;;;;;6414191;22;20013;-53
2024/04/09 09:52:10;;;;;;;3.08;1.20;;;;;;;;;;6413956;22;19998;-51
2024/04/09 09:54:37;;;;;;;8.02;1.75;;;;;;;;;;6415839;22;19998;-52
2024/04/09 09:57:14;;;;;;;4.63;1.52;;;;;;;;;;6414408;22;20023;-61
2024/04/09 10:00:03;;;;;;;2.88;1.20;;;;;;;;;;6411859;22;19998;-61
2024/04/09 10:02:31;;;;;;;5.20;1.60;;;;;;;;;;6413752;22;19995;-67
2024/04/09 10:05:15;;;;;;;4.20;1.35;;;;;;;;;;6414485;22;20013;-67
2024/04/09 10:07:43;;;;;;;6.60;1.70;;;;;;;;;;6414607;22;19995;-67
2024/04/09 10:10:26;;;;;;;5.43;1.98;;;;;;;;;;6414683;22;20010;-67
2024/04/09 10:12:54;;;;;;;6.30;1.50;;;;;;;;;;6415104;22;20039;-67
2024/04/09 10:15:28;;;;;;;7.63;1.42;;;;;;;;;;6415893;22;20078;-61
2024/04/09 10:17:56;;;;;;;5.93;1.45;;;;;;;;;;6413666;22;20013;-61
2024/04/09 10:20:26;;;;;;;3.47;1.45;;;;;;;;;;6414722;22;20003;-61
2024/04/09 10:23:01;;;;;;;5.78;1.70;;;;;;;;;;6414165;22;20654;-61
2024/04/09 10:25:41;;;;;;;4.32;1.30;;;;;;;;;;6413321;22;20485;-51
2024/04/09 10:28:35;;;;;;;5.88;1.30;;;;;;;;;;6414003;22;20065;-52
2024/04/09 10:31:04;;;;;;;5.28;1.50;;;;;;;;;;6415983;22;20777;-49
2024/04/09 10:33:39;;;;;;;5.20;1.42;;;;;;;;;;6415629;22;20026;-53
2024/04/09 10:36:09;;;;;;;2.63;1.20;;;;;;;;;;6413298;22;20443;-51
2024/04/09 10:38:38;;;;;;;5.50;1.85;;;;;;;;;;6411073;22;20449;-51
2024/04/09 10:41:12;;;;;;;4.93;1.50;;;;;;;;;;6412960;22;20005;-54
2024/04/09 10:43:41;;;;;;;8.73;1.65;;;;;;;;;;6412307;22;20054;-62
2024/04/09 10:46:18;;;;;;;6.13;2.00;;;;;;;;;;6415060;22;19998;-63
2024/04/09 10:48:45;;;;;;;6.70;1.80;;;;;;;;;;6415607;22;20006;-62
2024/04/09 10:51:13;;;;;;;;;;;;;;;;;;6415235;22;20467;-62
2024/04/09 10:53:50;;;;;;;8.77;1.58;;;;;;;;;;6413509;22;20627;-51
2024/04/09 10:56:24;;;;;;;5.20;1.42;;;;;;;;;;6414964;22;20031;-60
2024/04/09 10:58:58;;;;;;;6.70;1.60;;;;;;;;;;6414211;22;20041;-62
2024/04/09 11:01:25;;;;;;;5.97;1.73;;;;;;;;;;6414702;22;20006;-62
2024/04/09 11:03:53;;;;;;;5.75;1.42;;;;;;;;;;6414507;22;20330;-62
2024/04/09 11:06:27;;;;;;;5.03;1.80;;;;;;;;;;6414812;22;20013;-62
2024/04/09 11:08:54;;;;;;;7.68;2.00;;;;;;;;;;6410781;22;20003;-62
2024/04/09 11:11:22;;;;;;;5.53;1.88;;;;;;;;;;6414120;22;20073;-62
2024/04/09 11:13:57;;;;;;;6.60;1.73;;;;;;;;;;6415402;22;20031;-61
2024/04/09 11:16:24;;;;;;;;;;;;;;;;;;6415483;22;20737;-61
2024/04/09 11:19:06;;;;;;;3.95;1.42;;;;;;;;;;6414661;22;19930;-61
2024/04/09 11:21:49;;;;;;;7.55;2.40;;;;;;;;;;6415666;22;20022;-61
2024/04/09 11:24:16;;;;;;;4.57;1.75;;;;;;;;;;6413006;22;20030;-64
2024/04/09 11:26:50;;;;;;;6.25;1.63;;;;;;;;;;6414179;22;20010;-61
2024/04/09 11:29:21;;;;;;;7.28;1.90;;;;;;;;;;6416360;22;20943;-62
2024/04/09 11:31:49;;;;;;;14.48;2.35;;;;;;;;;;6416917;22;20042;-62
2024/04/09 11:34:24;;;;;;;8.98;2.30;;;;;;;;;;6416687;22;20003;-62
2024/04/09 11:36:58;;;;;;;5.10;1.95;;;;;;;;;;6414841;22;19998;-61
2024/04/09 11:39:38;;;;;;;6.93;1.92;;;;;;;;;;6416087;22;20475;-62
2024/04/09 11:42:06;;;;;;;6.60;1.92;;;;;;;;;;6416775;22;19999;-62
2024/04/09 11:44:40;;;;;;;6.78;1.95;;;;;;;;;;6415326;22;20473;-62
2024/04/09 11:47:07;;;;;;;4.85;1.80;;;;;;;;;;6415533;22;20002;-62
2024/04/09 11:49:35;;;;;;;7.47;1.92;;;;;;;;;;6416620;22;20013;-61
2024/04/09 11:52:09;;;;;;;10.07;1.95;;;;;;;;;;6418118;22;20010;-64
2024/04/09 11:54:36;;;;;;;9.00;2.70;;;;;;;;;;6416473;22;20048;-53
2024/04/09 11:57:10;;;;;;;8.60;1.77;;;;;;;;;;6414364;22;20354;-50
2024/04/09 11:59:46;;;;;;;5.20;1.90;;;;;;;;;;6416432;22;20595;-52
2024/04/09 12:02:13;;;;;;;8.45;2.00;;;;;;;;;;6416633;22;20010;-52
2024/04/09 12:04:41;;;;;;;;;;;;;;;;;;6416330;22;20281;-50
2024/04/09 12:07:15;;;;;;;5.65;1.85;;;;;;;;;;6415991;22;19924;-53
2024/04/09 12:09:43;;;;;;;7.63;1.92;;;;;;;;;;6415426;22;20015;-63
2024/04/09 12:12:17;;;;;;;9.25;2.08;;;;;;;;;;6415564;22;20313;-63
2024/04/09 12:14:45;;;;;;;5.82;2.05;;;;;;;;;;6416269;22;20013;-63
2024/04/09 12:17:12;;;;;;;;;;;;;;;;;;6417553;22;19998;-63
2024/04/09 12:19:48;;;;;;;8.27;2.20;;;;;;;;;;6416383;22;19930;-63
2024/04/09 12:22:15;;;;;;;;;;;;;;;;;;6417781;22;20037;-54
2024/04/09 12:24:52;;;;;;;7.10;1.67;;;;;;;;;;6417071;22;20288;-50
2024/04/09 12:27:19;;;;;;;6.35;2.35;;;;;;;;;;6415141;22;19998;-51
2024/04/09 12:29:47;;;;;;;8.70;2.00;;;;;;;;;;6415534;22;20704;-52
2024/04/09 12:32:21;;;;;;;7.10;1.67;;;;;;;;;;6415906;22;19994;-49
2024/04/09 12:34:49;;;;;;;12.18;2.05;;;;;;;;;;6414977;22;20076;-50
2024/04/09 12:37:30;;;;;;;7.13;1.90;;;;;;;;;;6414428;22;20051;-64
2024/04/09 12:40:05;;;;;;;5.47;1.83;;;;;;;;;;6416360;22;20006;-63
2024/04/09 12:42:39;;;;;;;10.93;2.15;;;;;;;;;;6415516;22;19998;-63
2024/04/09 12:45:13;;;;;;;8.32;2.03;;;;;;;;;;6415644;22;20038;-63
2024/04/09 12:47:47;;;;;;;7.50;2.00;;;;;;;;;;6415137;22;20010;-51
2024/04/09 12:50:21;;;;;;;6.78;1.73;;;;;;;;;;6416075;22;20003;-61
2024/04/09 12:52:55;;;;;;;6.63;2.00;;;;;;;;;;6414317;22;20005;-62
2024/04/09 12:55:29;;;;;;;5.93;1.92;;;;;;;;;;6416816;22;20085;-62
2024/04/09 12:57:57;;;;;;;;;;;;;;;;;;6416601;22;20006;-61
2024/04/09 13:00:33;;;;;;;6.40;2.33;;;;;;;;;;6415701;22;20418;-61
2024/04/09 13:03:27;;;;;;;5.72;2.20;;;;;;;;;;6414000;22;20018;-62
2024/04/09 13:05:55;;;;;;;6.18;1.95;;;;;;;;;;6414053;22;20018;-61
2024/04/09 13:08:29;;;;;;;6.05;1.98;;;;;;;;;;6414811;22;20002;-61
2024/04/09 13:10:57;;;;;;;8.73;2.20;;;;;;;;;;6415436;22;20443;-61
2024/04/09 13:13:31;;;;;;;6.90;2.05;;;;;;;;;;6415961;22;20451;-61
2024/04/09 13:15:59;;;;;;;10.30;3.15;;;;;;;;;;6416256;22;20006;-61
2024/04/09 13:18:47;;;;;;;6.03;2.10;;;;;;;;;;6414959;22;20003;-61
2024/04/09 13:21:22;;;;;;;6.72;2.10;;;;;;;;;;6415316;22;20076;-65
2024/04/09 13:23:49;;;;;;;6.20;2.38;;;;;;;;;;6412428;22;20077;-65
2024/04/09 13:26:16;;;;;;;5.95;2.25;;;;;;;;;;6415796;22;20098;-65
2024/04/09 13:28:51;;;;;;;6.60;1.88;;;;;;;;;;6413704;22;20030;-65
2024/04/09 13:31:19;;;;;;;11.18;2.78;;;;;;;;;;6417806;22;20002;-64
2024/04/09 13:33:53;;;;;;;5.63;2.00;;;;;;;;;;6413820;22;19999;-65
2024/04/09 13:36:20;;;;;;;15.15;2.55;;;;;;;;;;6415563;22;19998;-64
2024/04/09 13:39:01;;;;;;;6.65;2.40;;;;;;;;;;6411200;22;20070;-64
2024/04/09 13:41:28;;;;;;;12.73;2.60;;;;;;;;;;6412459;22;20443;-64
2024/04/09 13:44:02;;;;;;;8.98;2.50;;;;;;;;;;6413326;22;20400;-65
2024/04/09 13:46:36;;;;;;;6.65;2.22;;;;;;;;;;6416262;22;20002;-61
2024/04/09 13:49:04;;;;;;;11.43;2.45;;;;;;;;;;6412672;22;20394;-64
2024/04/09 13:51:32;;;;;;;8.95;2.40;;;;;;;;;;6414300;22;20319;-64
2024/04/09 13:54:06;;;;;;;5.30;2.15;;;;;;;;;;6412884;22;20014;-65
2024/04/09 13:56:40;;;;;;;6.97;2.05;;;;;;;;;;6415619;22;20012;-64
2024/04/09 13:59:14;;;;;;;7.05;2.55;;;;;;;;;;6413942;22;20017;-66
2024/04/09 14:01:48;;;;;;;9.77;2.53;;;;;;;;;;6414417;22;19995;-65
2024/04/09 14:04:16;;;;;;;9.95;2.42;;;;;;;;;;6416045;22;20002;-61
2024/04/09 14:06:51;;;;;;;7.75;2.92;;;;;;;;;;6412981;22;19995;-61
2024/04/09 14:09:25;;;;;;;7.30;2.75;;;;;;;;;;6411162;22;20010;-61
2024/04/09 14:12:12;;;;;;;12.45;3.10;;;;;;;;;;6413797;22;20074;-61
2024/04/09 14:15:07;;;;;;;11.73;3.28;;;;;;;;;;6414255;22;20354;-64
2024/04/09 14:17:54;;;;;;;17.02;2.65;;;;;;;;;;6413110;22;20070;-52
2024/04/09 14:20:48;;;;;;;10.15;2.20;;;;;;;;;;6413620;22;19998;-51
2024/04/09 14:23:36;;;;;;;11.38;2.95;;;;;;;;;;6414442;22;20017;-53
2024/04/09 14:26:30;;;;;;;6.38;2.60;;;;;;;;;;6414930;22;20014;-54
2024/04/09 14:29:24;;;;;;;10.20;2.85;;;;;;;;;;6414849;22;20006;-51
2024/04/09 14:32:11;;;;;;;7.70;2.50;;;;;;;;;;6414085;22;20094;-61
2024/04/09 14:35:05;;;;;;;7.95;2.72;;;;;;;;;;6413808;22;20003;-51
2024/04/09 14:38:00;;;;;;;5.75;2.20;;;;;;;;;;6406080;22;19999;-53
2024/04/09 14:40:54;;;;;;;12.65;2.42;;;;;;;;;;6413210;22;20013;-52
2024/04/09 14:43:43;;;;;;;;;;;;;;;;;;6415461;22;20403;-51
2024/04/09 14:46:37;;;;;;;7.55;2.47;;;;;;;;;;6415118;22;19931;-51
2024/04/09 14:49:24;;;;;;;6.35;2.38;;;;;;;;;;6414976;22;20002;-54
2024/04/09 14:52:18;;;;;;;10.20;2.85;;;;;;;;;;6414955;22;20018;-60
2024/04/09 14:55:06;;;;;;;8.25;2.42;;;;;;;;;;6412675;22;20715;-61
2024/04/09 14:58:06;;;;;;;13.95;2.35;;;;;;;;;;6412945;22;20006;-61
2024/04/09 15:01:01;;;;;;;6.40;2.45;;;;;;;;;;6414019;22;19999;-62
2024/04/09 15:03:48;;;;;;;8.98;2.28;;;;;;;;;;6413911;22;20009;-61
2024/04/09 15:06:42;;;;;;;8.60;2.33;;;;;;;;;;6414936;22;20031;-62
2024/04/09 15:09:31;;;;;;;8.65;3.15;;;;;;;;;;6413910;22;20007;-63
2024/04/09 15:12:25;;;;;;;8.52;2.30;;;;;;;;;;6415482;22;19998;-63
2024/04/09 15:15:11;;;;;;;8.18;2.50;;;;;;;;;;6415119;22;20006;-63
2024/04/09 15:18:05;;;;;;;10.27;2.78;;;;;;;;;;6414419;22;20018;-63
2024/04/09 15:20:52;;;;;;;9.27;2.40;;;;;;;;;;6416044;22;20031;-66